sensor_id;sensor_type;location;lat;lon;timestamp;temperature;humidity
20831;DHT22;10576;53.556;9.868;2023-06-26T00:01:41;20.70;99.90
20831;DHT22;10576;53.556;9.868;2023-06-26T00:04:07;20.70;99.90
20831;DHT22;10576;53.556;9.868;2023-06-26T00:06:33;20.60;99.90
20831;DHT22;10576;53.556;9.868;2023-06-26T00:08:58;20.60;99.90
20831;DHT22;10576;53.556;9.868;2023-06-26T00:11:24;20.50;99.90
20831;DHT22;10576;53.556;9.868;2023-06-26T00:13:50;20.50;99.90
20831;DHT22;10576;53.556;9.868;2023-06-26T00:16:15;20.50;99.90
20831;DHT22;10576;53.556;9.868;2023-06-26T00:18:41;20.50;99.90
20831;DHT22;10576;53.556;9.868;2023-06-26T00:21:06;20.40;99.90
20831;DHT22;10576;53.556;9.868;2023-06-26T00:23:32;20.40;99.90
20831;DHT22;10576;53.556;9.868;2023-06-26T00:26:02;20.30;99.90
20831;DHT22;10576;53.556;9.868;2023-06-26T00:28:28;20.30;99.90
20831;DHT22;10576;53.556;9.868;2023-06-26T00:30:53;20.30;99.90
20831;DHT22;10576;53.556;9.868;2023-06-26T00:33:19;20.20;99.90
20831;DHT22;10576;53.556;9.868;2023-06-26T00:35:45;20.20;99.90
20831;DHT22;10576;53.556;9.868;2023-06-26T00:38:10;20.20;99.90
20831;DHT22;10576;53.556;9.868;2023-06-26T00:40:36;20.20;99.90
20831;DHT22;10576;53.556;9.868;2023-06-26T00:43:01;20.10;99.90
20831;DHT22;10576;53.556;9.868;2023-06-26T00:45:27;20.10;99.90
20831;DHT22;10576;53.556;9.868;2023-06-26T00:47:52;20.10;99.90
20831;DHT22;10576;53.556;9.868;2023-06-26T00:50:18;20.00;99.90
20831;DHT22;10576;53.556;9.868;2023-06-26T00:52:44;20.00;99.90
20831;DHT22;10576;53.556;9.868;2023-06-26T00:55:09;19.90;99.90
20831;DHT22;10576;53.556;9.868;2023-06-26T00:57:35;19.90;99.90
20831;DHT22;10576;53.556;9.868;2023-06-26T01:00:01;19.90;99.90
20831;DHT22;10576;53.556;9.868;2023-06-26T01:02:26;19.90;99.90
20831;DHT22;10576;53.556;9.868;2023-06-26T01:04:59;19.90;99.90
20831;DHT22;10576;53.556;9.868;2023-06-26T01:07:25;19.80;99.90
20831;DHT22;10576;53.556;9.868;2023-06-26T01:09:51;19.80;99.90
20831;DHT22;10576;53.556;9.868;2023-06-26T01:12:16;19.80;99.90
20831;DHT22;10576;53.556;9.868;2023-06-26T01:14:42;19.70;99.90
20831;DHT22;10576;53.556;9.868;2023-06-26T01:17:08;19.70;99.90
20831;DHT22;10576;53.556;9.868;2023-06-26T01:19:37;19.70;99.90
20831;DHT22;10576;53.556;9.868;2023-06-26T01:22:19;19.70;99.90
20831;DHT22;10576;53.556;9.868;2023-06-26T01:24:48;19.70;99.90
20831;DHT22;10576;53.556;9.868;2023-06-26T01:27:19;19.60;99.90
20831;DHT22;10576;53.556;9.868;2023-06-26T01:29:49;19.60;99.90
20831;DHT22;10576;53.556;9.868;2023-06-26T01:32:15;19.60;99.90
20831;DHT22;10576;53.556;9.868;2023-06-26T01:34:41;19.60;99.90
20831;DHT22;10576;53.556;9.868;2023-06-26T01:37:06;19.60;99.90
20831;DHT22;10576;53.556;9.868;2023-06-26T01:39:32;19.60;99.90
20831;DHT22;10576;53.556;9.868;2023-06-26T01:41:58;19.60;99.90
20831;DHT22;10576;53.556;9.868;2023-06-26T01:44:27;19.50;99.90
20831;DHT22;10576;53.556;9.868;2023-06-26T01:47:00;19.60;99.90
20831;DHT22;10576;53.556;9.868;2023-06-26T01:49:37;19.50;99.90
20831;DHT22;10576;53.556;9.868;2023-06-26T01:54:29;19.50;99.90
20831;DHT22;10576;53.556;9.868;2023-06-26T01:56:55;19.50;99.90
20831;DHT22;10576;53.556;9.868;2023-06-26T01:59:22;19.40;99.90
20831;DHT22;10576;53.556;9.868;2023-06-26T02:01:49;19.40;99.90
20831;DHT22;10576;53.556;9.868;2023-06-26T02:04:14;19.40;99.90
20831;DHT22;10576;53.556;9.868;2023-06-26T02:06:40;19.40;99.90
20831;DHT22;10576;53.556;9.868;2023-06-26T02:09:05;19.80;99.90
20831;DHT22;10576;53.556;9.868;2023-06-26T02:11:31;19.50;99.90
20831;DHT22;10576;53.556;9.868;2023-06-26T02:13:57;19.30;99.90
20831;DHT22;10576;53.556;9.868;2023-06-26T02:16:22;19.30;99.90
20831;DHT22;10576;53.556;9.868;2023-06-26T02:18:48;19.30;99.90
20831;DHT22;10576;53.556;9.868;2023-06-26T02:21:14;19.30;99.90
20831;DHT22;10576;53.556;9.868;2023-06-26T02:23:39;19.20;99.90
20831;DHT22;10576;53.556;9.868;2023-06-26T02:26:05;19.20;99.90
20831;DHT22;10576;53.556;9.868;2023-06-26T02:28:30;19.20;99.90
20831;DHT22;10576;53.556;9.868;2023-06-26T02:30:56;19.20;99.90
20831;DHT22;10576;53.556;9.868;2023-06-26T02:33:22;19.20;99.90
20831;DHT22;10576;53.556;9.868;2023-06-26T02:35:47;19.10;99.90
20831;DHT22;10576;53.556;9.868;2023-06-26T02:38:15;19.10;99.90
20831;DHT22;10576;53.556;9.868;2023-06-26T02:40:41;19.10;99.90
20831;DHT22;10576;53.556;9.868;2023-06-26T02:43:06;19.10;99.90
20831;DHT22;10576;53.556;9.868;2023-06-26T02:45:32;19.10;99.90
20831;DHT22;10576;53.556;9.868;2023-06-26T02:47:57;19.10;99.90
20831;DHT22;10576;53.556;9.868;2023-06-26T02:50:23;19.00;99.90
20831;DHT22;10576;53.556;9.868;2023-06-26T02:52:48;19.00;99.90
20831;DHT22;10576;53.556;9.868;2023-06-26T02:55:18;19.00;99.90
20831;DHT22;10576;53.556;9.868;2023-06-26T02:57:44;19.00;99.90
20831;DHT22;10576;53.556;9.868;2023-06-26T03:00:10;19.00;99.90
20831;DHT22;10576;53.556;9.868;2023-06-26T03:02:36;19.00;99.90
20831;DHT22;10576;53.556;9.868;2023-06-26T03:05:02;19.00;99.90
20831;DHT22;10576;53.556;9.868;2023-06-26T03:07:28;19.00;99.90
20831;DHT22;10576;53.556;9.868;2023-06-26T03:09:53;19.00;99.90
20831;DHT22;10576;53.556;9.868;2023-06-26T03:12:19;19.00;99.90
20831;DHT22;10576;53.556;9.868;2023-06-26T03:14:45;19.00;99.90
20831;DHT22;10576;53.556;9.868;2023-06-26T03:17:10;19.00;99.90
20831;DHT22;10576;53.556;9.868;2023-06-26T03:19:36;19.00;99.90
20831;DHT22;10576;53.556;9.868;2023-06-26T03:22:01;19.00;99.90
20831;DHT22;10576;53.556;9.868;2023-06-26T03:24:29;19.00;99.90
20831;DHT22;10576;53.556;9.868;2023-06-26T03:26:54;19.00;99.90
20831;DHT22;10576;53.556;9.868;2023-06-26T03:29:20;19.00;99.90
20831;DHT22;10576;53.556;9.868;2023-06-26T03:31:46;19.00;99.90
20831;DHT22;10576;53.556;9.868;2023-06-26T03:34:11;19.00;99.90
20831;DHT22;10576;53.556;9.868;2023-06-26T03:36:37;19.00;99.90
20831;DHT22;10576;53.556;9.868;2023-06-26T03:39:02;19.00;99.90
20831;DHT22;10576;53.556;9.868;2023-06-26T03:41:29;19.00;99.90
20831;DHT22;10576;53.556;9.868;2023-06-26T03:43:54;19.00;99.90
20831;DHT22;10576;53.556;9.868;2023-06-26T03:46:22;19.00;99.90
20831;DHT22;10576;53.556;9.868;2023-06-26T03:48:47;19.10;99.90
20831;DHT22;10576;53.556;9.868;2023-06-26T03:51:13;19.10;99.90
20831;DHT22;10576;53.556;9.868;2023-06-26T03:53:38;19.10;99.90
20831;DHT22;10576;53.556;9.868;2023-06-26T03:56:04;19.20;99.90
20831;DHT22;10576;53.556;9.868;2023-06-26T03:58:29;19.20;99.90
20831;DHT22;10576;53.556;9.868;2023-06-26T04:00:55;19.20;99.90
20831;DHT22;10576;53.556;9.868;2023-06-26T04:03:21;19.20;99.90
20831;DHT22;10576;53.556;9.868;2023-06-26T04:05:46;19.30;99.90
20831;DHT22;10576;53.556;9.868;2023-06-26T04:08:12;19.30;99.90
20831;DHT22;10576;53.556;9.868;2023-06-26T04:10:37;19.30;99.90
20831;DHT22;10576;53.556;9.868;2023-06-26T04:13:03;19.40;99.90
20831;DHT22;10576;53.556;9.868;2023-06-26T04:15:28;19.40;99.90
20831;DHT22;10576;53.556;9.868;2023-06-26T04:17:54;19.40;99.90
20831;DHT22;10576;53.556;9.868;2023-06-26T04:20:19;19.40;99.90
20831;DHT22;10576;53.556;9.868;2023-06-26T04:22:45;19.50;99.90
20831;DHT22;10576;53.556;9.868;2023-06-26T04:25:10;19.50;99.90
20831;DHT22;10576;53.556;9.868;2023-06-26T04:27:39;19.50;99.90
20831;DHT22;10576;53.556;9.868;2023-06-26T04:30:04;19.60;99.90
20831;DHT22;10576;53.556;9.868;2023-06-26T04:32:30;19.00;99.90
20831;DHT22;10576;53.556;9.868;2023-06-26T04:34:56;19.60;99.90
20831;DHT22;10576;53.556;9.868;2023-06-26T04:37:22;19.60;99.90
20831;DHT22;10576;53.556;9.868;2023-06-26T04:39:47;19.70;99.90
20831;DHT22;10576;53.556;9.868;2023-06-26T04:42:13;19.70;99.90
20831;DHT22;10576;53.556;9.868;2023-06-26T04:44:39;19.80;99.90
20831;DHT22;10576;53.556;9.868;2023-06-26T04:47:06;19.80;99.90
20831;DHT22;10576;53.556;9.868;2023-06-26T04:49:32;19.80;99.90
20831;DHT22;10576;53.556;9.868;2023-06-26T04:51:57;19.90;99.90
20831;DHT22;10576;53.556;9.868;2023-06-26T04:54:25;20.00;99.90
20831;DHT22;10576;53.556;9.868;2023-06-26T04:56:51;20.00;99.90
20831;DHT22;10576;53.556;9.868;2023-06-26T04:59:17;20.10;99.90
20831;DHT22;10576;53.556;9.868;2023-06-26T05:01:42;20.10;99.90
20831;DHT22;10576;53.556;9.868;2023-06-26T05:04:09;20.20;99.90
20831;DHT22;10576;53.556;9.868;2023-06-26T05:06:35;20.30;99.90
20831;DHT22;10576;53.556;9.868;2023-06-26T05:09:00;20.30;99.90
20831;DHT22;10576;53.556;9.868;2023-06-26T05:11:26;20.40;99.90
20831;DHT22;10576;53.556;9.868;2023-06-26T05:13:51;20.50;99.90
20831;DHT22;10576;53.556;9.868;2023-06-26T05:16:17;20.50;99.90
20831;DHT22;10576;53.556;9.868;2023-06-26T05:18:42;20.60;99.90
20831;DHT22;10576;53.556;9.868;2023-06-26T05:21:08;20.60;99.90
20831;DHT22;10576;53.556;9.868;2023-06-26T05:23:33;20.80;99.90
20831;DHT22;10576;53.556;9.868;2023-06-26T05:26:00;20.80;99.90
20831;DHT22;10576;53.556;9.868;2023-06-26T05:28:25;21.00;99.90
20831;DHT22;10576;53.556;9.868;2023-06-26T05:30:53;21.10;99.90
20831;DHT22;10576;53.556;9.868;2023-06-26T05:33:18;21.20;99.90
20831;DHT22;10576;53.556;9.868;2023-06-26T05:35:47;21.40;99.90
20831;DHT22;10576;53.556;9.868;2023-06-26T05:38:13;21.50;99.90
20831;DHT22;10576;53.556;9.868;2023-06-26T05:40:39;21.60;99.90
20831;DHT22;10576;53.556;9.868;2023-06-26T05:43:05;21.70;99.90
20831;DHT22;10576;53.556;9.868;2023-06-26T05:45:31;21.80;99.90
20831;DHT22;10576;53.556;9.868;2023-06-26T05:47:56;22.00;99.90
20831;DHT22;10576;53.556;9.868;2023-06-26T05:50:22;22.10;99.90
20831;DHT22;10576;53.556;9.868;2023-06-26T05:52:48;22.20;99.90
20831;DHT22;10576;53.556;9.868;2023-06-26T05:55:13;22.30;99.90
20831;DHT22;10576;53.556;9.868;2023-06-26T05:57:39;22.30;99.90
20831;DHT22;10576;53.556;9.868;2023-06-26T06:00:07;22.50;99.90
20831;DHT22;10576;53.556;9.868;2023-06-26T06:02:38;22.50;99.90
20831;DHT22;10576;53.556;9.868;2023-06-26T06:05:04;22.60;99.90
20831;DHT22;10576;53.556;9.868;2023-06-26T06:07:34;22.60;99.90
20831;DHT22;10576;53.556;9.868;2023-06-26T06:10:00;22.60;99.90
20831;DHT22;10576;53.556;9.868;2023-06-26T06:12:25;22.60;99.90
20831;DHT22;10576;53.556;9.868;2023-06-26T06:14:51;22.60;99.90
20831;DHT22;10576;53.556;9.868;2023-06-26T06:17:17;22.60;99.90
20831;DHT22;10576;53.556;9.868;2023-06-26T06:19:43;22.60;99.90
20831;DHT22;10576;53.556;9.868;2023-06-26T06:22:08;22.70;99.90
20831;DHT22;10576;53.556;9.868;2023-06-26T06:24:34;22.70;99.90
20831;DHT22;10576;53.556;9.868;2023-06-26T06:26:59;22.70;99.90
20831;DHT22;10576;53.556;9.868;2023-06-26T06:29:25;22.70;99.90
20831;DHT22;10576;53.556;9.868;2023-06-26T06:31:50;22.80;99.90
20831;DHT22;10576;53.556;9.868;2023-06-26T06:34:16;22.90;99.90
20831;DHT22;10576;53.556;9.868;2023-06-26T06:36:42;22.90;99.90
20831;DHT22;10576;53.556;9.868;2023-06-26T06:39:07;22.90;99.90
20831;DHT22;10576;53.556;9.868;2023-06-26T06:41:33;21.50;99.90
20831;DHT22;10576;53.556;9.868;2023-06-26T06:43:59;23.00;99.90
20831;DHT22;10576;53.556;9.868;2023-06-26T06:46:27;23.10;99.90
20831;DHT22;10576;53.556;9.868;2023-06-26T06:48:53;23.10;99.90
20831;DHT22;10576;53.556;9.868;2023-06-26T06:51:18;23.30;99.90
20831;DHT22;10576;53.556;9.868;2023-06-26T06:53:44;23.30;99.90
20831;DHT22;10576;53.556;9.868;2023-06-26T06:56:09;23.30;99.90
20831;DHT22;10576;53.556;9.868;2023-06-26T06:58:35;23.40;99.90
20831;DHT22;10576;53.556;9.868;2023-06-26T07:01:01;23.40;99.90
20831;DHT22;10576;53.556;9.868;2023-06-26T07:03:28;23.40;99.90
20831;DHT22;10576;53.556;9.868;2023-06-26T07:05:53;23.50;99.90
20831;DHT22;10576;53.556;9.868;2023-06-26T07:08:19;22.20;99.90
20831;DHT22;10576;53.556;9.868;2023-06-26T07:10:44;23.60;99.90
20831;DHT22;10576;53.556;9.868;2023-06-26T07:13:10;23.60;99.90
20831;DHT22;10576;53.556;9.868;2023-06-26T07:15:35;23.70;99.90
20831;DHT22;10576;53.556;9.868;2023-06-26T07:18:01;23.70;99.90
20831;DHT22;10576;53.556;9.868;2023-06-26T07:20:26;23.80;99.90
20831;DHT22;10576;53.556;9.868;2023-06-26T07:22:52;23.90;99.90
20831;DHT22;10576;53.556;9.868;2023-06-26T07:25:18;24.00;99.90
20831;DHT22;10576;53.556;9.868;2023-06-26T07:27:43;24.10;99.90
20831;DHT22;10576;53.556;9.868;2023-06-26T07:30:10;24.30;99.90
20831;DHT22;10576;53.556;9.868;2023-06-26T07:32:36;24.30;99.90
20831;DHT22;10576;53.556;9.868;2023-06-26T07:35:01;24.50;99.90
20831;DHT22;10576;53.556;9.868;2023-06-26T07:37:27;24.60;99.90
20831;DHT22;10576;53.556;9.868;2023-06-26T07:39:52;24.80;99.90
20831;DHT22;10576;53.556;9.868;2023-06-26T07:42:18;25.00;99.90
20831;DHT22;10576;53.556;9.868;2023-06-26T07:44:44;25.20;99.90
20831;DHT22;10576;53.556;9.868;2023-06-26T07:47:10;25.20;99.90
20831;DHT22;10576;53.556;9.868;2023-06-26T07:49:36;25.50;99.90
20831;DHT22;10576;53.556;9.868;2023-06-26T07:52:02;25.70;99.90
20831;DHT22;10576;53.556;9.868;2023-06-26T07:54:27;25.90;99.90
20831;DHT22;10576;53.556;9.868;2023-06-26T07:59:20;26.10;99.90
20831;DHT22;10576;53.556;9.868;2023-06-26T08:01:46;26.20;99.90
20831;DHT22;10576;53.556;9.868;2023-06-26T08:04:12;26.30;99.90
20831;DHT22;10576;53.556;9.868;2023-06-26T08:06:37;26.30;99.90
20831;DHT22;10576;53.556;9.868;2023-06-26T08:09:06;26.50;99.90
20831;DHT22;10576;53.556;9.868;2023-06-26T08:11:33;26.60;99.90
20831;DHT22;10576;53.556;9.868;2023-06-26T08:13:58;26.70;99.90
20831;DHT22;10576;53.556;9.868;2023-06-26T08:16:24;26.70;99.90
20831;DHT22;10576;53.556;9.868;2023-06-26T08:18:50;26.60;99.90
20831;DHT22;10576;53.556;9.868;2023-06-26T08:21:16;27.00;99.90
20831;DHT22;10576;53.556;9.868;2023-06-26T08:23:41;27.20;99.90
20831;DHT22;10576;53.556;9.868;2023-06-26T08:26:07;27.40;99.90
20831;DHT22;10576;53.556;9.868;2023-06-26T08:28:33;27.60;99.90
20831;DHT22;10576;53.556;9.868;2023-06-26T08:30:58;27.90;99.90
20831;DHT22;10576;53.556;9.868;2023-06-26T08:33:25;28.00;99.90
20831;DHT22;10576;53.556;9.868;2023-06-26T08:35:50;28.20;99.90
20831;DHT22;10576;53.556;9.868;2023-06-26T08:38:16;28.20;99.90
20831;DHT22;10576;53.556;9.868;2023-06-26T08:40:41;28.00;99.90
20831;DHT22;10576;53.556;9.868;2023-06-26T08:43:07;27.90;99.90
20831;DHT22;10576;53.556;9.868;2023-06-26T08:45:33;27.70;99.90
20831;DHT22;10576;53.556;9.868;2023-06-26T08:48:00;27.40;99.90
20831;DHT22;10576;53.556;9.868;2023-06-26T08:50:27;27.40;99.90
20831;DHT22;10576;53.556;9.868;2023-06-26T08:52:54;27.70;99.90
20831;DHT22;10576;53.556;9.868;2023-06-26T08:55:22;27.90;99.90
20831;DHT22;10576;53.556;9.868;2023-06-26T08:57:52;28.10;99.90
20831;DHT22;10576;53.556;9.868;2023-06-26T09:00:19;28.30;99.90
20831;DHT22;10576;53.556;9.868;2023-06-26T09:02:45;28.40;99.90
20831;DHT22;10576;53.556;9.868;2023-06-26T09:05:11;28.50;99.90
20831;DHT22;10576;53.556;9.868;2023-06-26T09:07:36;28.60;99.90
20831;DHT22;10576;53.556;9.868;2023-06-26T09:10:02;28.90;99.90
20831;DHT22;10576;53.556;9.868;2023-06-26T09:12:28;29.00;99.90
20831;DHT22;10576;53.556;9.868;2023-06-26T09:14:54;29.10;99.90
20831;DHT22;10576;53.556;9.868;2023-06-26T09:17:24;29.10;99.90
20831;DHT22;10576;53.556;9.868;2023-06-26T09:19:51;28.90;99.90
20831;DHT22;10576;53.556;9.868;2023-06-26T09:22:16;28.70;99.90
20831;DHT22;10576;53.556;9.868;2023-06-26T09:24:43;28.50;99.90
20831;DHT22;10576;53.556;9.868;2023-06-26T09:27:09;28.60;99.90
20831;DHT22;10576;53.556;9.868;2023-06-26T09:29:35;28.20;99.90
20831;DHT22;10576;53.556;9.868;2023-06-26T09:32:00;27.80;99.90
20831;DHT22;10576;53.556;9.868;2023-06-26T09:34:32;27.30;99.90
20831;DHT22;10576;53.556;9.868;2023-06-26T09:36:58;27.00;99.90
20831;DHT22;10576;53.556;9.868;2023-06-26T09:39:24;26.70;99.90
20831;DHT22;10576;53.556;9.868;2023-06-26T09:41:50;26.80;99.90
20831;DHT22;10576;53.556;9.868;2023-06-26T09:44:15;26.70;99.90
20831;DHT22;10576;53.556;9.868;2023-06-26T09:46:42;26.70;99.90
20831;DHT22;10576;53.556;9.868;2023-06-26T09:49:10;26.40;99.90
20831;DHT22;10576;53.556;9.868;2023-06-26T09:51:37;26.20;99.90
20831;DHT22;10576;53.556;9.868;2023-06-26T09:54:03;25.90;99.90
20831;DHT22;10576;53.556;9.868;2023-06-26T09:56:29;25.60;99.90
20831;DHT22;10576;53.556;9.868;2023-06-26T09:58:55;25.40;99.90
20831;DHT22;10576;53.556;9.868;2023-06-26T10:01:23;25.20;99.90
20831;DHT22;10576;53.556;9.868;2023-06-26T10:03:48;25.10;99.90
20831;DHT22;10576;53.556;9.868;2023-06-26T10:06:14;25.00;99.90
20831;DHT22;10576;53.556;9.868;2023-06-26T10:08:40;24.70;99.90
20831;DHT22;10576;53.556;9.868;2023-06-26T10:11:08;24.60;99.90
20831;DHT22;10576;53.556;9.868;2023-06-26T10:13:38;24.40;99.90
20831;DHT22;10576;53.556;9.868;2023-06-26T10:16:06;24.10;99.90
20831;DHT22;10576;53.556;9.868;2023-06-26T10:18:33;23.70;99.90
20831;DHT22;10576;53.556;9.868;2023-06-26T10:21:00;23.30;99.90
20831;DHT22;10576;53.556;9.868;2023-06-26T10:23:26;22.80;99.90
20831;DHT22;10576;53.556;9.868;2023-06-26T10:25:54;22.60;99.90
20831;DHT22;10576;53.556;9.868;2023-06-26T10:28:20;22.30;99.90
20831;DHT22;10576;53.556;9.868;2023-06-26T10:30:47;22.10;99.90
20831;DHT22;10576;53.556;9.868;2023-06-26T10:33:13;22.00;99.90
20831;DHT22;10576;53.556;9.868;2023-06-26T10:35:45;21.80;99.90
20831;DHT22;10576;53.556;9.868;2023-06-26T10:38:11;21.70;99.90
20831;DHT22;10576;53.556;9.868;2023-06-26T10:40:43;21.60;99.90
20831;DHT22;10576;53.556;9.868;2023-06-26T10:43:11;21.50;99.90
20831;DHT22;10576;53.556;9.868;2023-06-26T10:45:37;21.40;99.90
20831;DHT22;10576;53.556;9.868;2023-06-26T10:48:02;21.50;99.90
20831;DHT22;10576;53.556;9.868;2023-06-26T10:50:30;21.60;99.90
20831;DHT22;10576;53.556;9.868;2023-06-26T10:53:07;21.80;99.90
20831;DHT22;10576;53.556;9.868;2023-06-26T10:55:32;22.80;99.90
20831;DHT22;10576;53.556;9.868;2023-06-26T10:57:58;22.40;99.90
20831;DHT22;10576;53.556;9.868;2023-06-26T11:00:23;22.50;99.90
20831;DHT22;10576;53.556;9.868;2023-06-26T11:02:49;23.00;99.90
20831;DHT22;10576;53.556;9.868;2023-06-26T11:05:28;23.10;99.90
20831;DHT22;10576;53.556;9.868;2023-06-26T11:10:28;22.80;99.90
20831;DHT22;10576;53.556;9.868;2023-06-26T11:12:54;22.60;99.90
20831;DHT22;10576;53.556;9.868;2023-06-26T11:15:24;22.80;99.90
20831;DHT22;10576;53.556;9.868;2023-06-26T11:17:50;22.90;99.90
20831;DHT22;10576;53.556;9.868;2023-06-26T11:20:16;23.30;99.90
20831;DHT22;10576;53.556;9.868;2023-06-26T11:22:43;23.60;99.90
20831;DHT22;10576;53.556;9.868;2023-06-26T11:25:09;23.90;99.90
20831;DHT22;10576;53.556;9.868;2023-06-26T11:30:04;24.50;99.90
20831;DHT22;10576;53.556;9.868;2023-06-26T11:32:30;23.40;99.90
20831;DHT22;10576;53.556;9.868;2023-06-26T11:34:58;23.30;99.90
20831;DHT22;10576;53.556;9.868;2023-06-26T11:37:24;23.60;99.90
20831;DHT22;10576;53.556;9.868;2023-06-26T11:39:49;23.70;99.90
20831;DHT22;10576;53.556;9.868;2023-06-26T11:42:15;23.90;99.90
20831;DHT22;10576;53.556;9.868;2023-06-26T11:44:43;23.90;99.90
20831;DHT22;10576;53.556;9.868;2023-06-26T11:47:16;23.80;99.90
20831;DHT22;10576;53.556;9.868;2023-06-26T11:49:45;24.00;99.90
20831;DHT22;10576;53.556;9.868;2023-06-26T11:52:11;23.70;99.90
20831;DHT22;10576;53.556;9.868;2023-06-26T11:54:37;23.00;99.90
20831;DHT22;10576;53.556;9.868;2023-06-26T11:57:04;22.80;99.90
20831;DHT22;10576;53.556;9.868;2023-06-26T11:59:33;22.70;99.90
20831;DHT22;10576;53.556;9.868;2023-06-26T12:01:59;22.70;99.90
20831;DHT22;10576;53.556;9.868;2023-06-26T12:04:25;22.60;99.90
20831;DHT22;10576;53.556;9.868;2023-06-26T12:06:51;22.50;99.90
20831;DHT22;10576;53.556;9.868;2023-06-26T12:09:18;22.70;99.90
20831;DHT22;10576;53.556;9.868;2023-06-26T12:11:44;23.30;99.90
20831;DHT22;10576;53.556;9.868;2023-06-26T12:14:12;23.60;99.90
20831;DHT22;10576;53.556;9.868;2023-06-26T12:16:38;23.80;99.90
20831;DHT22;10576;53.556;9.868;2023-06-26T12:19:05;23.90;99.90
20831;DHT22;10576;53.556;9.868;2023-06-26T12:24:02;24.10;99.90
20831;DHT22;10576;53.556;9.868;2023-06-26T12:26:28;24.30;99.90
20831;DHT22;10576;53.556;9.868;2023-06-26T12:29:17;24.70;99.90
20831;DHT22;10576;53.556;9.868;2023-06-26T12:31:44;25.30;99.90
20831;DHT22;10576;53.556;9.868;2023-06-26T12:34:10;25.30;99.90
20831;DHT22;10576;53.556;9.868;2023-06-26T12:36:43;25.40;99.90
20831;DHT22;10576;53.556;9.868;2023-06-26T12:39:10;25.20;99.90
20831;DHT22;10576;53.556;9.868;2023-06-26T12:41:52;25.40;99.90
20831;DHT22;10576;53.556;9.868;2023-06-26T12:46:53;25.10;99.90
20831;DHT22;10576;53.556;9.868;2023-06-26T12:49:19;25.10;99.90
20831;DHT22;10576;53.556;9.868;2023-06-26T12:51:45;25.30;99.90
20831;DHT22;10576;53.556;9.868;2023-06-26T12:54:11;25.20;99.90
20831;DHT22;10576;53.556;9.868;2023-06-26T12:56:36;25.20;99.90
20831;DHT22;10576;53.556;9.868;2023-06-26T12:59:02;25.00;99.90
20831;DHT22;10576;53.556;9.868;2023-06-26T13:01:27;25.00;99.90
20831;DHT22;10576;53.556;9.868;2023-06-26T13:03:53;24.90;99.90
20831;DHT22;10576;53.556;9.868;2023-06-26T13:06:19;24.90;99.90
20831;DHT22;10576;53.556;9.868;2023-06-26T13:08:44;25.00;99.90
20831;DHT22;10576;53.556;9.868;2023-06-26T13:11:10;24.90;99.90
20831;DHT22;10576;53.556;9.868;2023-06-26T13:13:36;24.70;99.90
20831;DHT22;10576;53.556;9.868;2023-06-26T13:16:01;24.50;99.90
20831;DHT22;10576;53.556;9.868;2023-06-26T13:18:27;24.70;99.90
20831;DHT22;10576;53.556;9.868;2023-06-26T13:20:53;24.70;99.90
20831;DHT22;10576;53.556;9.868;2023-06-26T13:23:18;24.70;99.90
20831;DHT22;10576;53.556;9.868;2023-06-26T13:25:44;24.90;99.90
20831;DHT22;10576;53.556;9.868;2023-06-26T13:28:10;24.60;99.90
20831;DHT22;10576;53.556;9.868;2023-06-26T13:30:36;24.50;99.90
20831;DHT22;10576;53.556;9.868;2023-06-26T13:33:01;24.50;99.90
20831;DHT22;10576;53.556;9.868;2023-06-26T13:35:27;24.50;99.90
20831;DHT22;10576;53.556;9.868;2023-06-26T13:37:53;24.20;99.90
20831;DHT22;10576;53.556;9.868;2023-06-26T13:40:19;24.20;99.90
20831;DHT22;10576;53.556;9.868;2023-06-26T13:42:44;24.30;99.90
20831;DHT22;10576;53.556;9.868;2023-06-26T13:45:10;24.30;99.90
20831;DHT22;10576;53.556;9.868;2023-06-26T13:47:35;24.10;99.90
20831;DHT22;10576;53.556;9.868;2023-06-26T13:50:03;23.80;99.90
20831;DHT22;10576;53.556;9.868;2023-06-26T13:52:29;23.70;99.90
20831;DHT22;10576;53.556;9.868;2023-06-26T13:54:54;23.60;99.90
20831;DHT22;10576;53.556;9.868;2023-06-26T13:57:20;23.60;99.90
20831;DHT22;10576;53.556;9.868;2023-06-26T13:59:47;24.20;99.90
20831;DHT22;10576;53.556;9.868;2023-06-26T14:02:13;24.50;99.90
20831;DHT22;10576;53.556;9.868;2023-06-26T14:04:38;24.30;99.90
20831;DHT22;10576;53.556;9.868;2023-06-26T14:07:04;24.00;99.90
20831;DHT22;10576;53.556;9.868;2023-06-26T14:09:30;23.90;99.90
20831;DHT22;10576;53.556;9.868;2023-06-26T14:11:55;23.80;99.90
20831;DHT22;10576;53.556;9.868;2023-06-26T14:14:21;23.70;99.90
20831;DHT22;10576;53.556;9.868;2023-06-26T14:16:46;23.50;99.90
20831;DHT22;10576;53.556;9.868;2023-06-26T14:19:15;23.30;99.90
20831;DHT22;10576;53.556;9.868;2023-06-26T14:21:43;23.40;99.90
20831;DHT22;10576;53.556;9.868;2023-06-26T14:24:08;23.40;99.90
20831;DHT22;10576;53.556;9.868;2023-06-26T14:26:34;23.60;99.90
20831;DHT22;10576;53.556;9.868;2023-06-26T14:28:59;23.70;99.90
20831;DHT22;10576;53.556;9.868;2023-06-26T14:31:25;23.80;99.90
20831;DHT22;10576;53.556;9.868;2023-06-26T14:33:51;23.60;99.90
20831;DHT22;10576;53.556;9.868;2023-06-26T14:36:16;23.20;99.90
20831;DHT22;10576;53.556;9.868;2023-06-26T14:38:42;23.30;99.90
20831;DHT22;10576;53.556;9.868;2023-06-26T14:41:07;23.30;99.90
20831;DHT22;10576;53.556;9.868;2023-06-26T14:43:33;23.40;99.90
20831;DHT22;10576;53.556;9.868;2023-06-26T14:45:59;23.30;99.90
20831;DHT22;10576;53.556;9.868;2023-06-26T14:48:25;23.10;99.90
20831;DHT22;10576;53.556;9.868;2023-06-26T14:50:50;23.00;99.90
20831;DHT22;10576;53.556;9.868;2023-06-26T14:53:16;23.00;99.90
20831;DHT22;10576;53.556;9.868;2023-06-26T14:55:42;22.90;99.90
20831;DHT22;10576;53.556;9.868;2023-06-26T14:58:07;23.00;99.90
20831;DHT22;10576;53.556;9.868;2023-06-26T15:00:33;22.90;99.90
20831;DHT22;10576;53.556;9.868;2023-06-26T15:02:58;22.90;99.90
20831;DHT22;10576;53.556;9.868;2023-06-26T15:05:24;22.70;99.90
20831;DHT22;10576;53.556;9.868;2023-06-26T15:07:50;22.80;99.90
20831;DHT22;10576;53.556;9.868;2023-06-26T15:10:15;22.70;99.90
20831;DHT22;10576;53.556;9.868;2023-06-26T15:12:42;22.90;99.90
20831;DHT22;10576;53.556;9.868;2023-06-26T15:15:08;22.90;99.90
20831;DHT22;10576;53.556;9.868;2023-06-26T15:17:34;22.90;99.90
20831;DHT22;10576;53.556;9.868;2023-06-26T15:20:00;22.80;99.90
20831;DHT22;10576;53.556;9.868;2023-06-26T15:22:26;22.60;99.90
20831;DHT22;10576;53.556;9.868;2023-06-26T15:24:52;22.40;99.90
20831;DHT22;10576;53.556;9.868;2023-06-26T15:27:17;22.40;99.90
20831;DHT22;10576;53.556;9.868;2023-06-26T15:29:43;22.30;99.90
20831;DHT22;10576;53.556;9.868;2023-06-26T15:32:09;22.10;99.90
20831;DHT22;10576;53.556;9.868;2023-06-26T15:34:34;22.10;99.90
20831;DHT22;10576;53.556;9.868;2023-06-26T15:37:00;22.10;99.90
20831;DHT22;10576;53.556;9.868;2023-06-26T15:39:26;22.10;99.90